Time;durP1;ratioP1;P1;durP2;ratioP2;P2;SDS_P1;SDS_P2;PMS_P1;PMS_P2;Temp;Humidity;BMP_temperature;BMP_pressure;BME280_temperature;BME280_humidity;BME280_pressure;Samples;Min_cycle;Max_cycle;Signal;HPM_P1;HPM_P2
2023/02/14 00:01:45;;;;;;;27.67;10.83;;;2.50;99.90;;;;;;5071379;28;20028;-77
2023/02/14 00:04:11;;;;;;;37.50;11.27;;;2.50;99.90;;;;;;5054915;28;20029;-74
2023/02/14 00:06:37;;;;;;;53.63;12.20;;;2.50;99.90;;;;;;5067527;28;20032;-74
2023/02/14 00:09:10;;;;;;;34.03;12.37;;;2.50;99.90;;;;;;5060515;28;20382;-72
2023/02/14 00:11:35;;;;;;;44.50;11.67;;;2.50;99.90;;;;;;5058457;28;20257;-73
2023/02/14 00:16:50;;;;;;;26.93;11.90;;;2.50;99.90;;;;;;5028918;28;20478;-72
2023/02/14 00:19:18;;;;;;;36.57;12.27;;;2.50;99.90;;;;;;5060927;28;20029;-77
2023/02/14 00:21:44;;;;;;;30.27;11.60;;;2.50;99.90;;;;;;5066773;28;20028;-72
2023/02/14 00:24:21;;;;;;;32.10;12.37;;;2.60;99.90;;;;;;5051458;28;20025;-73
2023/02/14 00:26:47;;;;;;;31.43;11.17;;;2.60;99.90;;;;;;5051458;28;20433;-71
2023/02/14 00:29:19;;;;;;;37.23;11.03;;;2.50;99.90;;;;;;5052227;28;20044;-73
2023/02/14 00:31:44;;;;;;;35.28;12.10;;;2.40;99.90;;;;;;5050364;28;20040;-73
2023/02/14 00:34:11;;;;;;;50.43;11.03;;;2.50;99.90;;;;;;5056150;28;20030;-72
2023/02/14 00:36:37;;;;;;;28.43;10.93;;;2.50;99.90;;;;;;5037264;28;20048;-73
2023/02/14 00:39:08;;;;;;;31.53;11.53;;;2.50;99.90;;;;;;5071181;28;20025;-73
2023/02/14 00:41:34;;;;;;;48.83;11.93;;;2.50;99.90;;;;;;5072154;28;20099;-73
2023/02/14 00:44:00;;;;;;;36.00;11.30;;;2.40;99.90;;;;;;5071091;28;20470;-73
2023/02/14 00:46:27;;;;;;;32.13;11.73;;;2.40;99.90;;;;;;5069653;28;20119;-74
2023/02/14 00:48:53;;;;;;;30.10;10.50;;;2.40;99.90;;;;;;5052484;28;20021;-74
2023/02/14 00:51:19;;;;;;;42.60;11.07;;;2.40;99.90;;;;;;5051790;28;20087;-74
2023/02/14 00:53:45;;;;;;;29.40;11.73;;;2.50;99.90;;;;;;5052973;28;20413;-74
2023/02/14 00:56:12;;;;;;;26.13;10.53;;;2.40;99.90;;;;;;5051352;28;20029;-73
2023/02/14 00:58:37;;;;;;;28.43;10.47;;;2.40;99.90;;;;;;5050502;28;20213;-73
2023/02/14 01:01:03;;;;;;;26.57;10.53;;;2.40;99.90;;;;;;5052178;28;20470;-73
2023/02/14 01:03:29;;;;;;;22.53;9.97;;;2.40;99.90;;;;;;5051575;28;20025;-73
2023/02/14 01:05:55;;;;;;;24.77;10.83;;;2.40;99.90;;;;;;5052351;28;20048;-74
2023/02/14 01:08:20;;;;;;;22.27;9.37;;;2.40;99.90;;;;;;5050315;28;20021;-74
2023/02/14 01:10:46;;;;;;;24.43;8.97;;;2.50;99.90;;;;;;5050882;28;20467;-73
2023/02/14 01:13:13;;;;;;;22.57;10.07;;;2.50;99.90;;;;;;5050862;28;20478;-73
2023/02/14 01:15:41;;;;;;;23.40;9.77;;;2.50;99.90;;;;;;5049938;28;20040;-73
2023/02/14 01:18:07;;;;;;;19.73;9.13;;;2.50;99.90;;;;;;5050472;28;20028;-74
2023/02/14 01:20:33;;;;;;;37.13;9.53;;;2.50;99.90;;;;;;5050627;28;20017;-74
2023/02/14 01:22:59;;;;;;;23.37;9.77;;;2.50;99.90;;;;;;5050231;28;20037;-73
2023/02/14 01:25:25;;;;;;;26.50;9.50;;;2.50;99.90;;;;;;5051274;28;20033;-73
2023/02/14 01:27:51;;;;;;;20.60;9.20;;;2.50;99.90;;;;;;5050728;28;20025;-73
2023/02/14 01:30:16;;;;;;;21.90;9.40;;;2.30;99.90;;;;;;5051848;28;20374;-73
2023/02/14 01:32:42;;;;;;;19.67;9.00;;;2.40;99.90;;;;;;5049868;28;20029;-74
2023/02/14 01:35:09;;;;;;;22.20;9.53;;;2.30;99.90;;;;;;5051676;28;20436;-73
2023/02/14 01:37:35;;;;;;;23.13;9.63;;;2.30;99.90;;;;;;5051484;28;20033;-73
2023/02/14 01:40:01;;;;;;;24.03;9.10;;;2.40;99.90;;;;;;5050586;28;20032;-74
2023/02/14 01:42:27;;;;;;;22.10;9.80;;;2.30;99.90;;;;;;5050008;28;20383;-74
2023/02/14 01:45:00;;;;;;;20.10;9.47;;;2.40;99.90;;;;;;5054015;28;20536;-73
2023/02/14 01:47:29;;;;;;;25.77;9.37;;;2.40;99.90;;;;;;5053143;28;20116;-74
2023/02/14 01:50:01;;;;;;;24.23;9.70;;;2.40;99.90;;;;;;5054077;28;20029;-73
2023/02/14 01:52:58;;;;;;;16.55;8.38;;;2.30;99.90;;;;;;5053321;28;20029;-74
2023/02/14 01:55:28;;;;;;;19.90;8.63;;;2.10;99.90;;;;;;5045605;28;20047;-76
2023/02/14 01:58:01;;;;;;;21.47;9.03;;;2.20;99.90;;;;;;5053931;28;20051;-74
2023/02/14 02:03:12;;;;;;;43.63;9.90;;;2.20;99.90;;;;;;5054980;28;20477;-73
2023/02/14 02:05:43;;;;;;;24.13;9.90;;;2.10;99.90;;;;;;5054011;28;20040;-73
2023/02/14 02:08:09;;;;;;;22.40;9.33;;;2.10;99.90;;;;;;5053911;28;20032;-73
2023/02/14 02:10:35;;;;;;;20.70;9.10;;;2.20;99.90;;;;;;5052926;28;20029;-73
2023/02/14 02:13:13;;;;;;;16.97;8.43;;;2.20;99.90;;;;;;5053625;28;20036;-73
2023/02/14 02:15:57;;;;;;;22.83;9.67;;;2.30;99.90;;;;;;5053040;28;20120;-73
2023/02/14 02:18:39;;;;;;;20.47;9.37;;;2.30;99.90;;;;;;5053469;28;20029;-75
2023/02/14 02:21:05;;;;;;;19.45;9.25;;;2.40;99.90;;;;;;5053870;28;20430;-73
2023/02/14 02:23:59;;;;;;;20.73;9.67;;;2.40;99.90;;;;;;5052879;28;20029;-73
2023/02/14 02:27:08;;;;;;;34.80;9.83;;;2.40;99.90;;;;;;5054004;28;20028;-77
2023/02/14 02:30:21;;;;;;;23.47;9.17;;;2.30;99.90;;;;;;5054353;28;20040;-73
2023/02/14 02:33:14;;;;;;;21.13;9.17;;;2.30;99.90;;;;;;4995058;28;20430;-73
2023/02/14 02:36:17;;;;;;;17.63;8.60;;;2.30;99.90;;;;;;5011266;28;20149;-73
2023/02/14 02:39:04;;;;;;;22.35;8.52;;;2.20;99.90;;;;;;5028096;28;20148;-73
2023/02/14 02:41:42;;;;;;;28.23;9.00;;;2.30;99.90;;;;;;5034071;28;20025;-73
2023/02/14 02:44:26;;;;;;;28.50;8.70;;;2.20;99.90;;;;;;5033363;28;20409;-73
2023/02/14 02:47:15;;;;;;;17.50;7.93;;;2.20;99.90;;;;;;5033141;28;20032;-73
2023/02/14 02:53:05;;;;;;;27.47;8.90;;;2.20;99.90;;;;;;5033930;28;20037;-73
2023/02/14 02:58:38;;;;;;;22.57;8.63;;;2.20;99.90;;;;;;5033478;28;20060;-75
2023/02/14 03:01:20;;;;;;;16.23;7.90;;;2.20;99.90;;;;;;5032966;28;20025;-73
2023/02/14 03:06:33;;;;;;;17.03;8.47;;;2.20;99.90;;;;;;5033979;28;20525;-74
2023/02/14 03:09:17;;;;;;;19.37;8.23;;;2.30;99.90;;;;;;5033115;28;20128;-74
2023/02/14 03:11:55;;;;;;;20.47;8.37;;;2.30;99.90;;;;;;5033293;28;20018;-74
2023/02/14 03:14:38;;;;;;;18.07;7.70;;;2.20;99.90;;;;;;5032861;28;20028;-74
2023/02/14 03:17:16;;;;;;;16.57;7.63;;;2.20;99.90;;;;;;5033574;28;20482;-73
2023/02/14 03:22:48;;;;;;;26.37;8.37;;;2.10;99.90;;;;;;5032853;28;20521;-73
2023/02/14 03:25:36;;;;;;;22.50;8.07;;;2.00;99.90;;;;;;5032271;28;20036;-72
2023/02/14 03:28:19;;;;;;;17.67;8.03;;;2.00;99.90;;;;;;5032566;28;20483;-73
2023/02/14 03:31:07;;;;;;;19.60;7.63;;;2.00;99.90;;;;;;5031783;28;20471;-74
2023/02/14 03:33:42;;;;;;;22.40;7.87;;;2.00;99.90;;;;;;5033048;28;20029;-74
2023/02/14 03:36:17;;;;;;;22.57;7.57;;;2.00;99.90;;;;;;5043362;28;20580;-73
2023/02/14 03:38:52;;;;;;;19.60;8.13;;;2.00;99.90;;;;;;5052360;28;20028;-74
2023/02/14 03:41:21;;;;;;;18.47;8.17;;;1.90;99.90;;;;;;5053285;28;20029;-73
2023/02/14 03:44:04;;;;;;;19.37;8.27;;;1.90;99.90;;;;;;5052261;28;20036;-73
2023/02/14 03:46:38;;;;;;;;;;;1.90;99.90;;;;;;5052823;28;20463;-77
2023/02/14 03:49:10;;;;;;;18.13;8.50;;;1.90;99.90;;;;;;5051849;28;19905;-73
2023/02/14 03:51:37;;;;;;;19.30;8.63;;;1.90;99.90;;;;;;5051116;28;20025;-73
2023/02/14 03:54:06;;;;;;;20.93;7.63;;;1.90;99.90;;;;;;5051638;28;20028;-73
2023/02/14 03:56:36;;;;;;;16.10;8.03;;;1.80;99.90;;;;;;5052159;28;20029;-74
2023/02/14 03:59:15;;;;;;;13.80;7.23;;;1.90;99.90;;;;;;5051952;28;20036;-73
2023/02/14 04:02:00;;;;;;;19.70;7.60;;;1.80;99.90;;;;;;5051028;28;20086;-73
2023/02/14 04:04:30;;;;;;;14.57;7.40;;;1.80;99.90;;;;;;5051620;28;20033;-73
2023/02/14 04:06:55;;;;;;;15.37;7.77;;;1.80;99.90;;;;;;5051024;28;20124;-73
2023/02/14 04:09:21;;;;;;;16.17;7.47;;;1.70;99.90;;;;;;5051690;28;20488;-73
2023/02/14 04:11:49;;;;;;;20.67;7.30;;;1.70;99.90;;;;;;5052087;28;20029;-73
2023/02/14 04:14:15;;;;;;;18.47;7.47;;;1.70;99.90;;;;;;5051273;28;20119;-73
2023/02/14 04:19:25;;;;;;;15.73;6.80;;;1.60;99.90;;;;;;5052374;28;20031;-73
2023/02/14 04:21:52;;;;;;;16.33;6.50;;;1.50;99.90;;;;;;5050452;28;20120;-73
2023/02/14 04:24:18;;;;;;;14.67;7.23;;;1.40;99.90;;;;;;5051193;28;20025;-73
2023/02/14 04:26:53;;;;;;;17.50;6.83;;;1.40;99.90;;;;;;5050402;28;20029;-73
2023/02/14 04:29:21;;;;;;;11.43;6.33;;;1.30;99.90;;;;;;5051362;28;20124;-73
2023/02/14 04:31:47;;;;;;;12.87;6.60;;;1.30;99.90;;;;;;5051983;28;20480;-74
2023/02/14 04:34:13;;;;;;;15.07;6.77;;;1.30;99.90;;;;;;5051367;28;20025;-74
2023/02/14 04:36:39;;;;;;;15.53;6.40;;;1.30;99.90;;;;;;5050446;28;20379;-74
2023/02/14 04:39:04;;;;;;;12.60;6.53;;;1.30;99.90;;;;;;5051015;28;20032;-74
2023/02/14 04:41:30;;;;;;;12.93;6.40;;;1.30;99.90;;;;;;5051873;28;20055;-77
2023/02/14 04:43:56;;;;;;;14.20;7.00;;;1.20;99.90;;;;;;5052013;28;20501;-74
2023/02/14 04:46:21;;;;;;;12.00;6.27;;;1.20;99.90;;;;;;5052352;28;20102;-73
2023/02/14 04:48:47;;;;;;;13.50;6.40;;;1.20;99.90;;;;;;5051700;28;20458;-74
2023/02/14 04:51:12;;;;;;;12.43;7.13;;;1.20;99.90;;;;;;5052379;28;20025;-74
2023/02/14 04:53:39;;;;;;;15.37;7.20;;;1.20;99.90;;;;;;5050283;28;20056;-73
2023/02/14 04:56:08;;;;;;;16.23;7.50;;;1.30;99.90;;;;;;5050758;28;20466;-73
2023/02/14 04:58:34;;;;;;;14.30;7.80;;;1.20;99.90;;;;;;5051600;28;20025;-77
2023/02/14 05:01:00;;;;;;;18.43;8.37;;;1.20;99.90;;;;;;5050660;28;20047;-73
2023/02/14 05:03:25;;;;;;;17.73;8.40;;;1.20;99.90;;;;;;5051755;28;20025;-73
2023/02/14 05:05:51;;;;;;;17.73;8.43;;;1.20;99.90;;;;;;5049953;28;20648;-73
2023/02/14 05:08:16;;;;;;;20.03;9.13;;;1.20;99.90;;;;;;5051924;28;20029;-73
2023/02/14 05:10:42;;;;;;;18.77;8.73;;;1.20;99.90;;;;;;5049979;28;20056;-73
2023/02/14 05:13:08;;;;;;;20.17;9.23;;;1.20;99.90;;;;;;5050856;28;20478;-73
2023/02/14 05:15:33;;;;;;;23.73;10.10;;;1.20;99.90;;;;;;5051477;28;20036;-76
2023/02/14 05:18:01;;;;;;;20.80;9.70;;;1.20;99.90;;;;;;5051196;28;20033;-73
2023/02/14 05:20:30;;;;;;;23.97;10.83;;;1.20;99.90;;;;;;5055811;28;20021;-73
2023/02/14 05:22:58;;;;;;;27.17;11.53;;;1.30;99.90;;;;;;5053704;28;20347;-73
2023/02/14 05:25:24;;;;;;;26.97;10.73;;;1.20;99.90;;;;;;5055674;28;20108;-73
2023/02/14 05:27:49;;;;;;;22.97;10.50;;;1.20;99.90;;;;;;5053685;28;20135;-73
2023/02/14 05:30:15;;;;;;;25.53;11.37;;;1.20;99.90;;;;;;5055520;28;20060;-72
2023/02/14 05:32:41;;;;;;;21.70;10.03;;;1.30;99.90;;;;;;5053597;28;20029;-73
2023/02/14 05:35:07;;;;;;;29.27;11.17;;;1.20;99.90;;;;;;5053655;28;20048;-73
2023/02/14 05:37:32;;;;;;;28.87;11.57;;;1.20;99.90;;;;;;5054197;28;20036;-72
2023/02/14 05:39:58;;;;;;;25.57;11.30;;;1.20;99.90;;;;;;5053489;28;20029;-72
2023/02/14 05:42:23;;;;;;;23.50;11.20;;;1.30;99.90;;;;;;5054160;28;20025;-72
2023/02/14 05:44:49;;;;;;;26.60;11.60;;;1.30;99.90;;;;;;5054512;28;20028;-72
2023/02/14 05:47:15;;;;;;;27.23;11.50;;;1.30;99.90;;;;;;5055420;28;20110;-73
2023/02/14 05:49:40;;;;;;;23.80;10.83;;;1.40;99.90;;;;;;5053529;28;20052;-73
2023/02/14 05:52:06;;;;;;;26.67;11.67;;;1.30;99.90;;;;;;5054015;28;20497;-73
2023/02/14 05:54:31;;;;;;;26.93;11.37;;;1.40;99.90;;;;;;5053934;28;20033;-73
2023/02/14 05:56:57;;;;;;;24.57;11.50;;;1.40;99.90;;;;;;5053164;28;20464;-72
2023/02/14 05:59:22;;;;;;;27.27;12.17;;;1.50;99.90;;;;;;5053737;28;20437;-71
2023/02/14 06:01:48;;;;;;;28.87;11.47;;;1.50;99.90;;;;;;5053480;28;20033;-72
2023/02/14 06:04:13;;;;;;;27.63;11.67;;;1.50;99.90;;;;;;5054141;28;20076;-73
2023/02/14 06:06:39;;;;;;;28.23;12.23;;;1.50;99.90;;;;;;5053252;28;20471;-73
2023/02/14 06:09:05;;;;;;;26.47;12.13;;;1.40;99.90;;;;;;5053636;28;20025;-73
2023/02/14 06:11:30;;;;;;;26.50;11.83;;;1.40;99.90;;;;;;5054869;28;20103;-73
2023/02/14 06:13:56;;;;;;;28.77;12.30;;;1.40;99.90;;;;;;5054224;28;20049;-72
2023/02/14 06:16:21;;;;;;;26.33;11.60;;;1.30;99.90;;;;;;5053412;28;20041;-72
2023/02/14 06:18:47;;;;;;;30.00;12.30;;;1.40;99.90;;;;;;5054062;28;20029;-73
2023/02/14 06:21:12;;;;;;;29.43;11.87;;;1.50;99.90;;;;;;5054762;28;20096;-73
2023/02/14 06:23:38;;;;;;;30.67;11.30;;;1.60;99.90;;;;;;5053004;28;20028;-76
2023/02/14 06:26:04;;;;;;;29.60;12.47;;;1.60;99.90;;;;;;5053119;28;20055;-73
2023/02/14 06:28:29;;;;;;;24.73;11.33;;;1.50;99.90;;;;;;5052913;28;20115;-73
2023/02/14 06:30:55;;;;;;;26.33;11.50;;;1.50;99.90;;;;;;5052590;28;20029;-73
2023/02/14 06:33:21;;;;;;;26.90;12.30;;;1.60;99.90;;;;;;5053075;28;20024;-73
2023/02/14 06:35:46;;;;;;;28.03;11.90;;;1.60;99.90;;;;;;5052023;28;20095;-73
2023/02/14 06:38:12;;;;;;;29.57;12.27;;;1.60;99.90;;;;;;5053032;28;20076;-73
2023/02/14 06:40:37;;;;;;;25.47;11.07;;;1.70;99.90;;;;;;5052791;28;20025;-77
2023/02/14 06:43:03;;;;;;;28.67;12.27;;;1.70;99.90;;;;;;5052618;28;20466;-73
2023/02/14 06:45:29;;;;;;;26.83;11.90;;;1.70;99.90;;;;;;5053032;28;20115;-73
2023/02/14 06:47:54;;;;;;;27.27;11.53;;;1.70;99.90;;;;;;5052163;28;20056;-73
2023/02/14 06:50:20;;;;;;;31.17;12.60;;;1.70;99.90;;;;;;5053797;28;20071;-73
2023/02/14 06:52:46;;;;;;;31.33;12.43;;;1.70;99.90;;;;;;5052096;28;20482;-73
2023/02/14 06:55:12;;;;;;;30.57;12.73;;;1.70;99.90;;;;;;5052689;28;20386;-73
2023/02/14 06:57:39;;;;;;;27.70;12.37;;;1.70;99.90;;;;;;5052773;28;20102;-76
2023/02/14 07:00:06;;;;;;;27.73;12.53;;;1.70;99.90;;;;;;5051974;28;20029;-73
2023/02/14 07:02:32;;;;;;;28.80;13.07;;;1.70;99.90;;;;;;5052622;28;20029;-73
2023/02/14 07:04:57;;;;;;;27.97;12.13;;;1.70;99.90;;;;;;5051795;28;20041;-73
2023/02/14 07:07:23;;;;;;;30.20;12.60;;;1.70;99.90;;;;;;5069200;28;20033;-74
2023/02/14 07:09:49;;;;;;;27.50;12.03;;;1.70;99.90;;;;;;5053083;28;20454;-74
2023/02/14 07:12:14;;;;;;;29.97;12.77;;;1.80;99.90;;;;;;5052729;28;20486;-74
2023/02/14 07:14:40;;;;;;;28.60;11.80;;;1.80;99.90;;;;;;5051862;28;20025;-76
2023/02/14 07:17:06;;;;;;;27.17;12.07;;;1.80;99.90;;;;;;5052051;28;20036;-74
2023/02/14 07:19:31;;;;;;;28.33;12.23;;;1.90;99.90;;;;;;5053898;28;20070;-73
2023/02/14 07:21:57;;;;;;;28.10;12.20;;;1.90;99.90;;;;;;5051794;28;20025;-74
2023/02/14 07:24:22;;;;;;;29.80;11.80;;;1.90;99.90;;;;;;5052959;28;20056;-74
2023/02/14 07:26:48;;;;;;;26.37;12.27;;;1.90;99.90;;;;;;5051580;28;20033;-74
2023/02/14 07:29:14;;;;;;;28.73;12.00;;;2.00;99.90;;;;;;5069021;28;20378;-73
2023/02/14 07:31:39;;;;;;;31.70;12.53;;;2.00;99.90;;;;;;5053366;28;20522;-74
2023/02/14 07:34:05;;;;;;;27.73;11.87;;;2.00;99.90;;;;;;5051380;28;20505;-73
2023/02/14 07:36:31;;;;;;;31.27;12.87;;;2.00;99.90;;;;;;5052980;28;20078;-74
2023/02/14 07:38:57;;;;;;;27.43;12.27;;;2.10;99.90;;;;;;5051237;28;20390;-73
2023/02/14 07:41:22;;;;;;;28.57;12.80;;;2.10;99.90;;;;;;5052398;28;20104;-73
2023/02/14 07:43:48;;;;;;;27.03;12.47;;;2.00;99.90;;;;;;5051252;28;20132;-74
2023/02/14 07:46:16;;;;;;;26.70;11.83;;;2.20;99.90;;;;;;5053818;28;20131;-77
2023/02/14 07:48:41;;;;;;;31.50;12.43;;;2.20;99.90;;;;;;5072876;28;20051;-82
2023/02/14 07:51:07;;;;;;;29.57;11.87;;;2.10;99.90;;;;;;5060141;28;20060;-74
2023/02/14 07:53:33;;;;;;;29.13;12.07;;;2.10;99.90;;;;;;5051193;28;20043;-74
2023/02/14 07:55:58;;;;;;;27.60;12.63;;;2.30;99.90;;;;;;5052075;28;20048;-75
2023/02/14 07:58:24;;;;;;;26.63;12.03;;;2.30;99.90;;;;;;5050982;28;20021;-74
2023/02/14 08:00:50;;;;;;;29.97;12.70;;;2.30;99.90;;;;;;5050999;28;20025;-76
2023/02/14 08:03:16;;;;;;;26.90;11.13;;;2.30;99.90;;;;;;5051908;28;20477;-74
2023/02/14 08:05:42;;;;;;;27.23;11.87;;;2.30;99.90;;;;;;5050915;28;20086;-76
2023/02/14 08:08:08;;;;;;;31.20;12.83;;;2.40;99.90;;;;;;5053913;28;20530;-74
2023/02/14 08:10:33;;;;;;;30.13;13.17;;;2.40;99.90;;;;;;5071272;28;20029;-74
2023/02/14 08:12:59;;;;;;;28.10;12.23;;;2.50;99.90;;;;;;5071916;28;20402;-74
2023/02/14 08:18:17;;;;;;;25.33;11.73;;;2.40;99.90;;;;;;5052803;28;20044;-76
2023/02/14 08:20:43;;;;;;;27.07;12.60;;;2.40;99.90;;;;;;5051671;28;20440;-76
2023/02/14 08:23:09;;;;;;;28.43;12.20;;;2.40;99.90;;;;;;5050942;28;20029;-75
2023/02/14 08:25:34;;;;;;;31.00;13.37;;;2.40;99.90;;;;;;5052185;28;20360;-74
2023/02/14 08:28:04;;;;;;;30.70;12.77;;;2.30;99.90;;;;;;5051965;28;20021;-74
2023/02/14 08:30:31;;;;;;;29.17;12.70;;;2.40;99.90;;;;;;5071718;28;20382;-78
2023/02/14 08:32:56;;;;;;;30.37;13.13;;;2.40;99.90;;;;;;5062933;28;20020;-76
2023/02/14 08:35:22;;;;;;;27.53;11.90;;;2.40;99.90;;;;;;5070971;28;20559;-77
2023/02/14 08:37:48;;;;;;;29.47;12.57;;;2.50;99.90;;;;;;5054856;28;20060;-77
2023/02/14 08:40:14;;;;;;;28.30;13.07;;;2.50;99.90;;;;;;5054775;28;20044;-77
2023/02/14 08:42:39;;;;;;;27.40;12.27;;;2.50;99.90;;;;;;5060546;28;20045;-76
2023/02/14 08:45:05;;;;;;;30.83;13.30;;;2.60;99.90;;;;;;5061764;28;20742;-77
2023/02/14 08:47:37;;;;;;;28.10;11.63;;;2.60;99.90;;;;;;5056306;28;20031;-75
2023/02/14 08:50:10;;;;;;;22.60;9.57;;;2.60;99.90;;;;;;5052059;28;20037;-75
2023/02/14 08:52:38;;;;;;;28.90;12.47;;;2.60;99.90;;;;;;5053233;28;20032;-75
2023/02/14 08:55:04;;;;;;;30.77;13.00;;;2.70;99.90;;;;;;5064891;28;20024;-75
2023/02/14 08:57:30;;;;;;;32.07;13.23;;;2.70;99.90;;;;;;5069691;28;20021;-75
2023/02/14 08:59:56;;;;;;;27.73;12.27;;;2.70;99.90;;;;;;5060045;28;20087;-75
2023/02/14 09:02:21;;;;;;;28.23;12.20;;;2.70;99.90;;;;;;5071280;28;20021;-75
2023/02/14 09:04:47;;;;;;;28.47;12.33;;;2.70;99.90;;;;;;5053981;28;20041;-79
2023/02/14 09:07:12;;;;;;;26.73;12.37;;;2.70;99.90;;;;;;5068311;28;20024;-74
2023/02/14 09:09:38;;;;;;;33.63;13.63;;;2.70;99.90;;;;;;5075046;28;20181;-83
2023/02/14 09:12:05;;;;;;;26.00;12.17;;;2.80;99.90;;;;;;5058546;28;20031;-81
2023/02/14 09:14:43;;;;;;;29.47;13.07;;;2.80;99.90;;;;;;5069615;28;20028;-75
2023/02/14 09:17:10;;;;;;;26.90;12.33;;;2.80;99.90;;;;;;5049176;28;20511;-78
2023/02/14 09:19:36;;;;;;;30.77;13.40;;;2.80;99.90;;;;;;5070549;28;20036;-78
2023/02/14 09:22:04;;;;;;;27.47;12.27;;;2.80;99.90;;;;;;5055426;28;20043;-76
2023/02/14 09:24:31;;;;;;;30.63;13.33;;;2.80;99.90;;;;;;5068967;28;20032;-76
2023/02/14 09:26:57;;;;;;;30.17;12.63;;;2.80;99.90;;;;;;5064397;28;20028;-79
2023/02/14 09:29:23;;;;;;;29.53;13.00;;;2.80;99.90;;;;;;5061025;28;20040;-75
2023/02/14 09:31:52;;;;;;;29.03;12.37;;;2.80;99.90;;;;;;5053597;28;20044;-75
2023/02/14 09:34:17;;;;;;;27.70;12.50;;;2.80;99.90;;;;;;5054339;28;20032;-75
2023/02/14 09:36:43;;;;;;;28.40;12.83;;;2.90;99.90;;;;;;5052926;28;20053;-74
2023/02/14 09:39:09;;;;;;;33.07;13.63;;;2.90;99.90;;;;;;5054087;28;20041;-75
2023/02/14 09:41:55;;;;;;;31.40;13.77;;;3.00;99.90;;;;;;5071143;28;20120;-74
2023/02/14 09:44:30;;;;;;;29.63;13.03;;;3.00;99.90;;;;;;5054742;28;20024;-74
2023/02/14 09:47:01;;;;;;;30.63;13.73;;;3.10;99.90;;;;;;5053768;28;20466;-75
2023/02/14 09:49:32;;;;;;;33.15;13.50;;;3.00;99.90;;;;;;5054360;28;20096;-75
2023/02/14 09:51:59;;;;;;;29.87;12.67;;;3.10;99.90;;;;;;5070452;28;20036;-74
2023/02/14 09:54:28;;;;;;;30.03;13.13;;;3.00;99.90;;;;;;5054074;28;20029;-75
2023/02/14 09:57:17;;;;;;;28.83;13.30;;;3.00;99.90;;;;;;5053762;28;20037;-74
2023/02/14 09:59:52;;;;;;;32.87;14.33;;;3.10;99.90;;;;;;5054406;28;20032;-74
2023/02/14 10:02:45;;;;;;;31.00;13.10;;;3.10;99.90;;;;;;5055334;28;20021;-75
2023/02/14 10:05:34;;;;;;;31.27;12.63;;;3.10;99.90;;;;;;5053008;28;20489;-74
2023/02/14 10:08:18;;;;;;;35.80;13.93;;;3.20;99.90;;;;;;5053444;28;20029;-75
2023/02/14 10:10:48;;;;;;;28.57;12.83;;;3.30;99.90;;;;;;5054873;28;20394;-74
2023/02/14 10:13:40;;;;;;;31.70;13.03;;;3.40;99.90;;;;;;5053552;28;20119;-75
2023/02/14 10:16:27;;;;;;;32.25;12.75;;;3.40;99.90;;;;;;5053105;28;20040;-75
2023/02/14 10:19:04;;;;;;;30.30;12.63;;;3.40;99.90;;;;;;5053144;28;20125;-75
2023/02/14 10:21:55;;;;;;;30.13;13.07;;;3.40;99.90;;;;;;5053864;28;20430;-75
2023/02/14 10:24:33;;;;;;;32.93;13.93;;;3.30;99.90;;;;;;5053850;28;20025;-75
2023/02/14 10:27:26;;;;;;;30.43;13.97;;;3.40;99.90;;;;;;5054475;28;20025;-75
2023/02/14 10:29:51;;;;;;;31.08;13.75;;;3.40;99.90;;;;;;5042549;28;20041;-77
2023/02/14 10:32:26;;;;;;;31.00;13.63;;;3.50;99.90;;;;;;5053278;28;20037;-74
2023/02/14 10:34:56;;;;;;;29.70;13.30;;;3.50;99.90;;;;;;5052477;28;20029;-78
2023/02/14 10:37:58;;;;;;;28.33;12.70;;;3.60;99.90;;;;;;5054297;28;20375;-75
2023/02/14 10:40:39;;;;;;;30.42;13.30;;;3.50;99.90;;;;;;5053178;28;20017;-75
2023/02/14 10:43:43;;;;;;;24.25;10.77;;;3.50;99.90;;;;;;5052497;28;20025;-74
2023/02/14 10:46:20;;;;;;;32.13;13.33;;;3.60;99.90;;;;;;5053631;28;20056;-74
2023/02/14 10:49:21;;;;;;;31.33;14.30;;;3.70;99.90;;;;;;5054307;28;20021;-75
2023/02/14 10:52:06;;;;;;;30.60;13.50;;;3.70;99.90;;;;;;5053335;28;20459;-75
2023/02/14 10:54:42;;;;;;;29.07;12.50;;;3.70;99.90;;;;;;5053174;28;20363;-75
2023/02/14 10:57:16;;;;;;;30.03;13.57;;;3.70;99.90;;;;;;5053669;28;20037;-75
2023/02/14 11:00:01;;;;;;;29.17;13.30;;;3.80;99.90;;;;;;5053026;28;20534;-74
2023/02/14 11:02:36;;;;;;;28.47;13.10;;;3.80;99.90;;;;;;5054004;28;20033;-74
2023/02/14 11:05:03;;;;;;;32.20;14.00;;;3.90;99.90;;;;;;5053417;28;20041;-74
2023/02/14 11:07:29;;;;;;;30.43;13.37;;;4.00;99.90;;;;;;5053531;28;20041;-75
2023/02/14 11:09:56;;;;;;;29.23;13.93;;;3.90;99.90;;;;;;5053104;28;20032;-76
2023/02/14 11:12:36;;;;;;;31.50;13.97;;;3.90;99.90;;;;;;5052596;28;20029;-74
2023/02/14 11:15:27;;;;;;;33.07;14.40;;;3.80;99.90;;;;;;5051278;28;20119;-74
2023/02/14 11:18:24;;;;;;;34.80;15.40;;;4.00;99.90;;;;;;5053581;28;20029;-77
2023/02/14 11:21:16;;;;;;;36.60;15.70;;;4.00;99.90;;;;;;5052671;28;20123;-74
2023/02/14 11:23:48;;;;;;;32.03;13.57;;;3.90;99.90;;;;;;5052538;28;20031;-74
2023/02/14 11:26:21;;;;;;;25.00;11.40;;;4.00;99.90;;;;;;5051306;28;20033;-74
2023/02/14 11:29:09;;;;;;;33.90;15.00;;;4.10;99.90;;;;;;5052546;28;20064;-74
2023/02/14 11:31:38;;;;;;;32.03;14.07;;;4.00;99.90;;;;;;5053158;28;20025;-75
2023/02/14 11:34:25;;;;;;;30.37;13.70;;;4.10;99.90;;;;;;5051825;28;20025;-74
2023/02/14 11:36:52;;;;;;;30.87;13.37;;;4.20;99.90;;;;;;5041329;28;20053;-74
2023/02/14 11:39:33;;;;;;;29.30;13.30;;;4.30;99.90;;;;;;5052117;28;20025;-74
2023/02/14 11:42:03;;;;;;;30.67;13.87;;;4.30;99.90;;;;;;5051770;28;20079;-74
2023/02/14 11:44:31;;;;;;;34.23;15.27;;;4.30;99.90;;;;;;5052078;28;20033;-74
2023/02/14 11:47:23;;;;;;;29.53;13.63;;;4.40;99.90;;;;;;5051615;28;20060;-74
2023/02/14 11:50:01;;;;;;;30.98;14.02;;;4.40;99.90;;;;;;5051795;28;20371;-74
2023/02/14 11:52:29;;;;;;;31.23;13.40;;;4.50;99.90;;;;;;5045800;28;20122;-74
2023/02/14 11:54:56;;;;;;;29.70;13.23;;;4.40;99.90;;;;;;5053118;28;20032;-74
2023/02/14 11:57:30;;;;;;;30.27;13.87;;;4.60;99.90;;;;;;5051239;28;20033;-75
2023/02/14 11:59:57;;;;;;;33.30;14.97;;;4.60;99.90;;;;;;5041672;28;20420;-74
2023/02/14 12:02:39;;;;;;;31.17;13.90;;;4.50;99.90;;;;;;5042440;28;20037;-75
2023/02/14 12:05:32;;;;;;;30.50;13.77;;;4.60;99.90;;;;;;5052421;28;20060;-74
2023/02/14 12:08:01;;;;;;;29.70;13.00;;;4.60;99.90;;;;;;5039997;28;20471;-75
2023/02/14 12:10:30;;;;;;;31.20;14.00;;;4.60;99.90;;;;;;5055655;28;20043;-75
2023/02/14 12:13:07;;;;;;;35.53;14.20;;;4.70;99.90;;;;;;5040535;28;20052;-75
2023/02/14 12:15:39;;;;;;;34.33;14.27;;;4.70;99.90;;;;;;5050313;28;20021;-74
2023/02/14 12:18:27;;;;;;;32.38;15.07;;;4.60;99.90;;;;;;5066673;28;20478;-74
2023/02/14 12:21:30;;;;;;;32.73;14.07;;;4.60;99.90;;;;;;5068616;28;20029;-74
2023/02/14 12:24:20;;;;;;;33.30;13.93;;;4.80;99.90;;;;;;5065866;28;20025;-75
2023/02/14 12:26:55;;;;;;;31.33;13.80;;;4.70;99.90;;;;;;5046356;28;20119;-75
2023/02/14 12:29:32;;;;;;;31.87;14.20;;;4.80;99.90;;;;;;5049177;28;20435;-74
2023/02/14 12:32:22;;;;;;;31.70;14.43;;;4.90;99.90;;;;;;5031815;28;20506;-77
2023/02/14 12:34:49;;;;;;;31.80;14.20;;;5.00;99.90;;;;;;5032783;28;20040;-74
2023/02/14 12:37:39;;;;;;;32.00;13.73;;;5.10;99.90;;;;;;5039491;28;20069;-75
2023/02/14 12:40:17;;;;;;;32.00;14.60;;;5.30;99.90;;;;;;5047033;28;20487;-74
2023/02/14 12:42:56;;;;;;;31.93;14.10;;;5.30;99.90;;;;;;5051528;28;20474;-75
2023/02/14 12:45:48;;;;;;;31.90;14.87;;;5.30;99.90;;;;;;5041624;28;20021;-75
2023/02/14 12:48:30;;;;;;;29.33;13.75;;;5.40;99.90;;;;;;5046496;28;20037;-75
2023/02/14 12:50:56;;;;;;;31.23;14.30;;;5.40;99.90;;;;;;5033872;28;20026;-77
2023/02/14 12:53:34;;;;;;;30.93;13.70;;;5.60;99.90;;;;;;5040949;28;20394;-74
2023/02/14 12:56:35;;;;;;;31.13;14.60;;;6.20;99.90;;;;;;5034641;28;20045;-75
2023/02/14 12:59:26;;;;;;;28.67;13.77;;;6.90;99.90;;;;;;5042560;28;20041;-75
2023/02/14 13:02:19;;;;;;;33.05;14.50;;;7.60;99.90;;;;;;5035364;28;20026;-75
2023/02/14 13:05:00;;;;;;;28.20;13.10;;;8.50;99.90;;;;;;5047410;28;20069;-77
2023/02/14 13:07:56;;;;;;;30.00;14.30;;;9.20;99.90;;;;;;5042770;28;20045;-78
2023/02/14 13:10:49;;;;;;;27.38;13.77;;;9.60;99.90;;;;;;5048681;28;20025;-79
2023/02/14 13:13:22;;;;;;;25.05;12.75;;;10.20;99.90;;;;;;5051085;28;20491;-77
2023/02/14 13:16:14;;;;;;;25.40;13.68;;;10.80;99.90;;;;;;5050222;28;20065;-77
2023/02/14 13:19:01;;;;;;;28.30;13.93;;;11.50;99.90;;;;;;5027033;28;20036;-78
2023/02/14 13:21:31;;;;;;;25.63;13.45;;;12.00;99.90;;;;;;5045232;28;20021;-77
2023/02/14 13:24:17;;;;;;;26.08;13.10;;;12.30;99.60;;;;;;5037289;28;20033;-80
2023/02/14 13:26:47;;;;;;;27.25;13.73;;;12.70;98.10;;;;;;5034210;28;20060;-78
2023/02/14 13:29:16;;;;;;;26.73;13.02;;;13.00;96.80;;;;;;5040229;28;20086;-78